Nearby METAR Reports

 

KORH - Worcester, Massachusetts, USA
Distance from station: NW 4mi, 7km
Updated: Sat, 17-Aug-2019 5:42pm EDT
Mostly cloudy
Mostly cloudy
 Wind from S
Wind: S 13 mph , 20 km/h
Temperature: 77°F , 25°C
Dew Point: 70°F , 21°C
Humidity: 79%
Barometer: 30.00 inHg , 1015.9 hPa
Clouds: Mostly cloudy
Visibility: 10 miles , 16 km
Cloud details: Partly cloudy 1800 ft
Mostly cloudy 2600 ft
Mostly cloudy 3500 ft
2019/08/17 21:42 KORH 172142Z 17011KT 10SM SCT018 BKN026 BKN035 25/21 A3000 RMK AO2 T02500211
KBOS - Boston, Massachusetts, USA
Distance from station: ENE 42mi, 68km
Updated: Sat, 17-Aug-2019 4:54pm EDT
Mostly cloudy
Mostly cloudy
 Wind from ENE
Wind: ENE 10 mph , 17 km/h
Temperature: 72°F , 22°C
Dew Point: 64°F , 18°C
Humidity: 78%
Barometer: 30.01 inHg , 1016.3 hPa
Clouds: Mostly cloudy
Visibility: 10 miles , 16 km
Cloud details: Few Clouds 300 ft
Mostly cloudy 3500 ft
Mostly cloudy 6000 ft
Mostly cloudy 25000 ft
2019/08/17 20:54 KBOS 172054Z 07009KT 10SM FEW003 BKN035 BKN060 BKN250 22/18 A3001 RMK AO2 SLP160 T02170183 58019
 
KCQX - Chatham, Massachusetts, USA
Distance from station: SE 102mi, 164km
Updated: Sat, 17-Aug-2019 4:52pm EDT
Overcast
Overcast
 Wind from varies
Wind: varies 7 mph , 11 km/h
Temperature: 75°F , 24°C
Dew Point: 66°F , 19°C
Humidity: 74%
Barometer: 30.04 inHg , 1017.3 hPa
Clouds: Overcast
Visibility: 10 miles , 16 km
Cloud details: Overcast 1600 ft
2019/08/17 20:52 KCQX 172052Z AUTO VRB06KT 10SM OVC016 24/19 A3004 RMK AO2 SLP174 T02390194 58012
KMVY - Marthas Vineyard, Massachusetts, USA
Distance from station: SE 84mi, 135km
Updated: Sat, 17-Aug-2019 4:29pm EDT
NOT Current
Mostly cloudy
Mostly cloudy
 Wind from SE
Wind: SE 10 mph , 17 km/h
Temperature: 79°F , 26°C
Dew Point: 70°F , 21°C
Humidity: 74%
Barometer: 30.02 inHg , 1016.6 hPa
Clouds: Mostly cloudy
Visibility: 10 miles , 16 km
Cloud details: Mostly cloudy 1100 ft
2019/08/17 20:29 KMVY 172029Z 13009KT 10SM BKN011 26/21 A3002 RMK AO2 T02610211
 
KPVC - Provincetown, Massachusetts, USA
Distance from station: NNW 85mi, 136km
Updated: Sat, 17-Aug-2019 4:56pm EDT
Mostly cloudy
Mostly cloudy
 Wind from ESE
Wind: ESE 8 mph , 13 km/h
Temperature: 73°F , 23°C
Dew Point: 68°F , 20°C
Humidity: 83%
Barometer: 30.03 inHg , 1016.9 hPa
Clouds: Mostly cloudy
Visibility: 10 miles , 16 km
Cloud details: Mostly cloudy 5500 ft
2019/08/17 20:56 KPVC 172056Z AUTO 11007KT 10SM BKN055 23/20 A3003 RMK AO2 SLP168 6//// T02280200 58016 PNO $
KAQW - Savoy, Massachusetts, USA
Distance from station: NNW 66mi, 106km
Updated: Sat, 17-Aug-2019 4:52pm EDT
Few Clouds
Few Clouds
 Wind from S
Wind: S 3 mph , 6 km/h
Temperature: 84°F , 29°C
Heat Index: 86°F , 30°C
Dew Point: 66°F , 19°C
Humidity: 55%
Barometer: 29.93 inHg , 1013.5 hPa
Clouds: Few Clouds
Visibility: 10 miles , 16 km
Cloud details: Few Clouds 5000 ft
2019/08/17 20:52 KAQW 172052Z AUTO 19003KT 10SM FEW050 29/19 A2993 RMK AO2 SLP132 T02890194 58026
 
KIZG - Fryeburg, Maine, USA
Distance from station: NNE 133mi, 214km
Updated: Sat, 17-Aug-2019 4:54pm EDT
Overcast
Overcast
 Wind from ESE
Wind: ESE 6 mph , 9 km/h
Temperature: 70°F , 21°C
Dew Point: 64°F , 18°C
Humidity: 83%
Barometer: 30.04 inHg , 1017.3 hPa
Clouds: Overcast
Visibility: 8 miles , 13 km
Cloud details: Overcast 700 ft
2019/08/17 20:54 KIZG 172054Z AUTO 11005KT 8SM OVC007 21/18 A3004 RMK AO2 SLP172 60000 T02060183 58015
KMWN - Mt Washington, New Hampshire, USA
Distance from station: NNE 146mi, 234km
Updated: Sat, 17-Aug-2019 4:47pm EDT
Fog, Overcast
Fog, Overcast
 Wind from WSW
Wind: WSW 25 mph , 41 km/h, Gust: 33 mph , 54 km/h
Temperature: 54°F , 12°C
Dew Point: 54°F , 12°C
Humidity: 100%
Summary: Fog
Clouds: Overcast
Visibility: 1/8 mile , 0.2 km
Cloud details: Overcast 200 ft
2019/08/17 20:47 KMWN 172047Z 25022G29KT 1/8SM FG VV002 12/12 RMK
 
KBML - Berlin, New Hampshire, USA
Distance from station: NNE 160mi, 257km
Updated: Sat, 17-Aug-2019 4:52pm EDT
Clear
Clear
 Wind from ESE
Wind: ESE 10 mph , 17 km/h
Temperature: 73°F , 23°C
Dew Point: 64°F , 18°C
Humidity: 74%
Barometer: 30.01 inHg , 1016.3 hPa
Clouds: Clear
Visibility: 10 miles , 16 km
2019/08/17 20:52 KBML 172052Z AUTO 12009KT 10SM CLR 23/18 A3001 RMK AO2 SLP159 T02330178 56012